Data for 10/31/2017

Time Sea-Level Adjusted Pressure Absolute Pressure Temperature Relative Humidity Dew Point   
(mb) (inHg) (mb) (inHg) (C) (F) (%) (C) (F)
00:05 1019 30.09 848 25.04 -4.1 24.6 67 -9.4 15.1
00:10 1019 30.09 848 25.04 -4.4 24.1 68 -9.5 14.9
00:15 1019 30.09 848 25.04 -4.5 23.9 68 -9.6 14.7
00:20 1019 30.09 848 25.04 -4.5 23.9 67 -9.7 14.5
00:25 1019 30.09 848 25.04 -4.4 24 67 -9.7 14.5
00:30 1019 30.09 848 25.04 -4.4 24 67 -9.7 14.5
00:35 1019 30.09 848 25.04 -4.3 24.2 67 -9.7 14.6
00:40 1019 30.09 848 25.04 -4.2 24.5 66 -9.7 14.6
00:45 1019 30.09 848 25.04 -4.2 24.5 66 -9.7 14.6
00:50 1018 30.06 848 25.04 -4.3 24.3 66 -9.7 14.6
00:55 1018 30.06 847 25.01 -4.3 24.3 65 -9.9 14.2
01:00 1018 30.06 847 25.01 -4.4 24 65 -10 14
01:05 1018 30.06 847 25.01 -4.4 24 66 -9.9 14.1
01:10 1018 30.06 848 25.04 -4.7 23.6 66 -10.1 13.9
01:15 1018 30.06 848 25.04 -4.6 23.6 64 -10.5 13.1
01:20 1018 30.06 847 25.01 -4.5 23.9 62 -10.7 12.7
01:25 1018 30.06 847 25.01 -4.3 24.2 61 -10.7 12.7
01:30 1018 30.06 847 25.01 -4.2 24.4 60 -10.8 12.5
01:35 1018 30.06 847 25.01 -4.1 24.6 61 -10.6 13
01:40 1018 30.06 847 25.01 -4.4 24.1 63 -10.4 13.3
01:45 1018 30.06 847 25.01 -4.5 23.9 60 -11.1 12.1
01:50 1018 30.06 847 25.01 -4.1 24.6 60 -10.7 12.7
01:55 1018 30.06 847 25.01 -4.1 24.6 61 -10.5 13.1
02:00 1018 30.06 847 25.01 -4 24.8 62 -10.3 13.4
02:05 1018 30.06 847 25.01 -4.1 24.7 61 -10.5 13
02:10 1018 30.06 847 25.01 -4.3 24.3 60 -10.9 12.5
02:15 1018 30.06 847 25.01 -4.2 24.4 62 -10.5 13.1
02:20 1018 30.06 847 25.01 -4.5 24 63 -10.5 13.1
02:25 1018 30.06 847 25.01 -4.5 24 61 -10.9 12.5
02:30 1018 30.06 847 25.01 -4.3 24.3 60 -10.9 12.5
02:35 1018 30.06 847 25.01 -4.2 24.4 60 -11 12.3
02:40 1018 30.06 847 25.01 -4.2 24.4 59 -11 12.1
02:45 1018 30.06 847 25.01 -4.2 24.4 59 -11 12.2
02:50 1018 30.06 847 25.01 -4.2 24.4 60 -10.9 12.4
02:55 1018 30.06 847 25.01 -4.2 24.5 60 -10.8 12.5
03:00 1018 30.06 847 25.01 -4.2 24.4 61 -10.6 12.9
03:05 1018 30.06 847 25.01 -4.3 24.2 62 -10.6 12.9
03:10 1017 30.03 847 25.01 -4.4 24.1 62 -10.6 13
03:15 1017 30.03 847 25.01 -4.2 24.4 62 -10.4 13.2
03:20 1017 30.03 846 24.98 -4.1 24.7 61 -10.6 13
03:25 1017 30.03 846 24.98 -4 24.9 62 -10.2 13.6
03:30 1017 30.03 846 24.98 -3.9 25 63 -10 13.9
03:35 1017 30.03 846 24.98 -4 24.9 63 -9.9 14.2
03:40 1017 30.03 846 24.98 -4 24.8 62 -10.2 13.7
03:45 1017 30.03 846 24.98 -4.1 24.7 63 -10.2 13.7
03:50 1017 30.03 846 24.98 -4.2 24.5 64 -10.1 13.9
03:55 1017 30.03 846 24.98 -4.3 24.3 64 -10 13.9
04:00 1017 30.03 846 24.98 -4.4 24.1 64 -10.2 13.7
04:05 1017 30.03 846 24.98 -4.3 24.2 63 -10.3 13.5
04:10 1017 30.03 846 24.98 -4.2 24.4 63 -10.2 13.6
04:15 1017 30.03 846 24.98 -4.3 24.3 65 -10 14
04:20 1017 30.03 846 24.98 -4.5 24 64 -10.2 13.6
04:25 1017 30.03 846 24.98 -4.4 24.1 65 -10.1 13.9
04:30 1017 30.03 846 24.98 -4.4 24 66 -9.9 14.2
04:35 1017 30.03 846 24.98 -4.4 24.1 65 -10.1 13.8
04:40 1017 30.03 846 24.98 -4.3 24.3 62 -10.6 13
04:45 1016 30 846 24.98 -3.9 25 59 -10.8 12.6
04:50 1016 30 846 24.98 -3.5 25.6 60 -10.3 13.5
04:55 1016 30 845 24.95 -3.8 25.1 62 -10 13.9
05:00 1016 30 845 24.95 -3.9 25 61 -10.3 13.5
05:05 1016 30 845 24.95 -4 24.8 62 -10.3 13.5
05:10 1016 30 845 24.95 -3.9 24.9 61 -10.4 13.2
05:15 1016 30 845 24.95 -3.8 25.1 60 -10.6 13
05:20 1016 30 845 24.95 -3.8 25.1 60 -10.6 12.9
05:25 1016 30 845 24.95 -3.7 25.3 60 -10.4 13.2
05:30 1016 30 845 24.95 -3.6 25.5 58 -10.7 12.7
05:35 1016 30 845 24.95 -3.6 25.6 58 -10.6 13
05:40 1016 30 845 24.95 -3.5 25.7 59 -10.3 13.4
05:45 1016 30 845 24.95 -3.4 25.8 60 -10.1 13.8
05:50 1016 30 845 24.95 -3.4 25.9 58 -10.4 13.2
05:55 1015 29.97 845 24.95 -3.5 25.7 59 -10.3 13.4
06:00 1015 29.97 845 24.95 -3.6 25.4 63 -9.8 14.4
06:05 1015 29.97 844 24.92 -3.7 25.4 63 -9.7 14.5
06:10 1015 29.97 844 24.92 -3.9 25 62 -10.2 13.7
06:15 1015 29.97 844 24.92 -3.9 25 62 -10.2 13.7
06:20 1015 29.97 844 24.92 -3.8 25.1 63 -9.8 14.4
06:25 1015 29.97 844 24.92 -3.8 25.2 61 -10.3 13.5
06:30 1015 29.97 844 24.92 -3.6 25.6 60 -10.3 13.5
06:35 1015 29.97 844 24.92 -3.4 25.8 62 -9.8 14.4
06:40 1015 29.97 844 24.92 -3.3 26 62 -9.6 14.7
06:45 1015 29.97 844 24.92 -3.2 26.2 64 -9.1 15.6
06:50 1015 29.97 844 24.92 -3.3 26 66 -8.7 16.3
06:55 1015 29.97 844 24.92 -3.5 25.7 67 -8.8 16.1
07:00 1015 29.97 844 24.92 -3.7 25.3 69 -8.5 16.6
07:05 1015 29.97 844 24.92 -4 24.8 70 -8.6 16.4
07:10 1015 29.97 844 24.92 -4.1 24.6 70 -8.7 16.3
07:15 1015 29.97 844 24.92 -4.2 24.4 70 -8.9 16
07:20 1015 29.97 844 24.92 -4.2 24.4 70 -8.9 16
07:25 1015 29.97 844 24.92 -4.2 24.4 68 -9.2 15.4
07:30 1015 29.97 844 24.92 -4.4 24.1 71 -8.9 16
07:35 1015 29.97 844 24.92 -4.4 24.1 69 -9.3 15.3
07:40 1015 29.97 844 24.92 -4.3 24.2 66 -9.8 14.4
07:45 1014 29.94 844 24.92 -4.3 24.2 69 -9.1 15.5
07:50 1014 29.94 843 24.89 -4.3 24.2 66 -9.7 14.6
07:55 1014 29.94 843 24.89 -4.1 24.6 65 -9.7 14.5
08:00 1014 29.94 843 24.89 -4.2 24.4 65 -9.8 14.4
08:05 1014 29.94 843 24.89 -4.3 24.3 66 -9.6 14.7
08:10 1014 29.94 843 24.89 -4.1 24.6 68 -9.3 15.3
08:15 1013 29.91 842 24.86 -4.1 24.6 69 -8.9 15.9
08:20 1013 29.91 842 24.86 -4.4 24.2 70 -9 15.7
08:25 1013 29.91 842 24.86 -4.5 24 68 -9.5 14.8
08:30 1013 29.91 842 24.86 -4.4 24.2 68 -9.4 15.2
08:35 1013 29.91 842 24.86 -4.2 24.5 68 -9.2 15.5
08:40 1013 29.91 842 24.86 -3.8 25.1 68 -9 15.8
08:45 1013 29.91 842 24.86 -3.6 25.6 64 -9.4 15.1
08:50 1013 29.91 842 24.86 -3.2 26.2 63 -9.3 15.2
08:55 1013 29.91 842 24.86 -2.8 26.9 61 -9.3 15.3
09:00 1013 29.91 842 24.86 -2.5 27.5 60 -9.2 15.4
09:05 1013 29.91 842 24.86 -2.5 27.5 62 -8.9 16
09:10 1013 29.91 842 24.86 -2.7 27.2 63 -8.8 16.1
09:15 1013 29.91 842 24.86 -2.4 27.6 62 -8.8 16.1
09:20 1013 29.91 842 24.86 -2.4 27.8 61 -8.8 16.1
09:25 1013 29.91 842 24.86 -2.2 28.1 59 -9 15.7
09:30 1013 29.91 842 24.86 -2 28.4 59 -9 15.8
09:35 1013 29.91 842 24.86 -1.7 29 57 -9.1 15.7
09:40 1013 29.91 842 24.86 -1.3 29.6 57 -8.9 16.1
09:45 1013 29.91 842 24.86 -1.1 30 55 -9.1 15.7
09:50 1013 29.91 842 24.86 -0.7 30.8 55 -8.6 16.5
09:55 1013 29.91 842 24.86 -0.7 30.8 55 -8.5 16.7
10:00 1013 29.91 842 24.86 -0.3 31.5 53 -8.8 16.2
10:05 1013 29.91 842 24.86 0.3 32.5 49 -9.1 15.6
10:10 1013 29.91 842 24.86 0.2 32.4 50 -9.1 15.6
10:15 1012 29.88 842 24.86 0.1 32.2 50 -9 15.8
10:20 1013 29.91 842 24.86 0.3 32.5 50 -9.1 15.7
10:25 1012 29.88 842 24.86 0.5 32.9 50 -8.9 16
10:30 1012 29.88 841 24.83 0.5 32.8 50 -8.8 16.1
10:35 1012 29.88 841 24.83 0.7 33.2 49 -8.8 16.2
10:40 1012 29.88 841 24.83 0.7 33.2 51 -8.4 16.9
10:45 1012 29.88 841 24.83 0.6 33.1 50 -8.5 16.6
10:50 1012 29.88 841 24.83 0.1 32.3 53 -8.3 17
10:55 1012 29.88 841 24.83 0.3 32.5 53 -8.2 17.3
11:00 1011 29.85 841 24.83 0.3 32.5 55 -7.8 17.9
11:05 1011 29.85 841 24.83 0.3 32.5 54 -7.9 17.7
11:10 1011 29.85 840 24.81 0.5 32.9 52 -8.2 17.3
11:15 1011 29.85 840 24.81 0.9 33.6 49 -8.7 16.3
11:20 1011 29.85 840 24.81 1.3 34.3 48 -8.4 16.8
11:25 1011 29.85 840 24.81 1.9 35.4 43 -9.6 14.8
11:30 1011 29.85 840 24.81 2.1 35.7 44 -9 15.8
11:35 1011 29.85 840 24.81 2.4 36.4 43 -8.8 16.2
11:40 1011 29.85 840 24.81 2.7 36.8 42 -9.1 15.5
11:45 1011 29.85 840 24.81 2.8 37.1 39 -9.7 14.5
11:50 1010 29.83 840 24.81 2.8 37.1 39 -9.7 14.6
11:55 1010 29.83 840 24.81 2.9 37.2 39 -9.9 14.2
12:00 1010 29.83 840 24.81 3 37.4 37 -10.2 13.7
12:05 1010 29.83 840 24.81 3.2 37.8 32 -11.9 10.6
12:10 1010 29.83 839 24.78 3.2 37.7 35 -10.8 12.5
12:15 1010 29.83 840 24.81 3.4 38.2 34 -10.8 12.5
12:20 1010 29.83 840 24.81 3.8 38.8 34 -10.6 12.9
12:25 1010 29.83 840 24.81 3.8 38.8 35 -10.4 13.2
12:30 1010 29.83 840 24.81 4 39.1 33 -10.9 12.3
12:35 1011 29.85 840 24.81 4.2 39.5 33 -10.8 12.5
12:40 1010 29.83 840 24.81 4.4 40 32 -10.8 12.6
12:45 1010 29.83 840 24.81 4.6 40.2 33 -10.2 13.7
12:50 1010 29.83 840 24.81 4.7 40.5 33 -10.4 13.2
12:55 1010 29.83 839 24.78 4.7 40.4 33 -10.3 13.4
13:00 1010 29.83 839 24.78 4.5 40.1 33 -10.6 13
13:05 1010 29.83 839 24.78 4.5 40.1 33 -10.6 13
13:10 1010 29.83 839 24.78 4.2 39.6 33 -10.6 13
13:15 1010 29.83 839 24.78 4.3 39.7 32 -11.2 11.9
13:20 1010 29.83 839 24.78 4.6 40.3 32 -10.6 12.9
13:25 1010 29.83 839 24.78 4.4 39.9 33 -10.5 13.1
13:30 1010 29.83 839 24.78 4.5 40.1 33 -10.5 13.2
13:35 1010 29.83 839 24.78 4.6 40.3 32 -10.6 12.9
13:40 1010 29.83 839 24.78 4.6 40.2 31 -11.1 12.1
13:45 1010 29.83 839 24.78 5 40.9 31 -10.9 12.4
13:50 1010 29.83 839 24.78 5.1 41.2 31 -10.6 12.9
13:55 1010 29.83 839 24.78 5.1 41.2 32 -10.3 13.5
14:00 1010 29.83 839 24.78 5.2 41.4 33 -10 14
14:05 1009 29.8 839 24.78 5.2 41.4 34 -9.3 15.2
14:10 1009 29.8 839 24.78 5.3 41.5 33 -9.9 14.2
14:15 1009 29.8 838 24.75 5.5 41.9 34 -9.3 15.3
14:20 1009 29.8 839 24.78 5.7 42.3 35 -8.7 16.3
14:25 1009 29.8 838 24.75 5.8 42.5 38 -7.6 18.4
14:30 1009 29.8 838 24.75 5.7 42.3 40 -6.7 20
14:35 1009 29.8 838 24.75 5.7 42.3 43 -6 21.1
14:40 1009 29.8 838 24.75 5.7 42.3 42 -6.2 20.8
14:45 1009 29.8 838 24.75 6 42.8 40 -6.6 20
14:50 1009 29.8 838 24.75 5.9 42.6 43 -5.8 21.6
14:55 1009 29.8 838 24.75 5.7 42.3 45 -5.3 22.5
15:00 1009 29.8 838 24.75 5.5 41.9 48 -4.5 23.9
15:05 1009 29.8 838 24.75 5.5 41.9 48 -4.6 23.8
15:10 1008 29.77 838 24.75 5.5 41.9 50 -4 24.8
15:15 1008 29.77 838 24.75 5.6 42.1 50 -4 24.7
15:20 1008 29.77 837 24.72 5.4 41.8 49 -4.4 24
15:25 1008 29.77 837 24.72 5.8 42.4 49 -4.2 24.5
15:30 1008 29.77 837 24.72 5.7 42.3 49 -4.1 24.6
15:35 1008 29.77 837 24.72 5.8 42.4 50 -3.7 25.3
15:40 1008 29.77 837 24.72 5.8 42.4 48 -4.4 24.1
15:45 1008 29.77 837 24.72 6 42.7 47 -4.5 24
15:50 1008 29.77 837 24.72 6.1 42.9 48 -4.2 24.4
15:55 1008 29.77 837 24.72 6.1 42.9 49 -3.8 25.2
16:00 1008 29.77 837 24.72 6 42.8 48 -4.1 24.7
16:05 1008 29.77 837 24.72 6 42.8 50 -3.7 25.3
16:10 1007 29.74 837 24.72 5.9 42.7 50 -3.7 25.3
16:15 1007 29.74 837 24.72 6 42.7 49 -3.8 25.1
16:20 1007 29.74 836 24.69 6 42.7 52 -3.2 26.3
16:25 1007 29.74 837 24.72 5.9 42.6 52 -3.2 26.2
16:30 1007 29.74 836 24.69 5.7 42.2 51 -3.6 25.6
16:35 1007 29.74 836 24.69 5.7 42.2 50 -3.9 25
16:40 1007 29.74 836 24.69 5.8 42.5 51 -3.5 25.7
16:45 1007 29.74 836 24.69 5.7 42.3 52 -3.5 25.8
16:50 1007 29.74 836 24.69 5.8 42.4 51 -3.7 25.4
16:55 1007 29.74 836 24.69 5.7 42.3 53 -3.2 26.2
17:00 1007 29.74 836 24.69 5.6 42.1 52 -3.6 25.6
17:05 1007 29.74 836 24.69 5.6 42.1 51 -3.8 25.2
17:10 1007 29.74 836 24.69 5.7 42.3 51 -3.6 25.5
17:15 1007 29.74 836 24.69 5.8 42.4 49 -4 24.8
17:20 1007 29.74 836 24.69 6.1 43.1 48 -4 24.8
17:25 1007 29.74 836 24.69 6.3 43.3 48 -4 24.8
17:30 1007 29.74 836 24.69 6.4 43.5 47 -4.1 24.7
17:35 1007 29.74 836 24.69 6.4 43.6 47 -4 24.8
17:40 1007 29.74 836 24.69 6.5 43.8 45 -4.7 23.6
17:45 1007 29.74 836 24.69 6.6 44 47 -4 24.8
17:50 1007 29.74 836 24.69 6.7 44.1 45 -4.3 24.2
17:55 1007 29.74 836 24.69 6.7 44.1 48 -3.5 25.6
18:00 1007 29.74 836 24.69 6.6 43.9 48 -3.5 25.7
18:05 1007 29.74 836 24.69 6.6 43.9 47 -3.8 25.1
18:10 1006 29.71 836 24.69 6.8 44.2 50 -2.9 26.7
18:15 1006 29.71 835 24.66 7.1 44.7 46 -3.6 25.5
18:20 1006 29.71 835 24.66 7.7 45.9 43 -4.2 24.5
18:25 1006 29.71 835 24.66 8.1 46.6 41 -4.4 24.1
18:30 1006 29.71 835 24.66 8.3 46.9 37 -5.5 22
18:35 1006 29.71 835 24.66 8.7 47.6 36 -5.6 21.8
18:40 1006 29.71 835 24.66 9.1 48.4 33 -6.3 20.6
18:45 1006 29.71 835 24.66 9.3 48.7 37 -4.8 23.4
18:50 1006 29.71 835 24.66 8.9 48.1 33 -6.3 20.6
18:55 1005 29.68 835 24.66 9.1 48.4 34 -6 21.2
19:00 1006 29.71 835 24.66 8.9 48.1 36 -5.2 22.7
19:05 1006 29.71 835 24.66 8.6 47.4 36 -5.5 22.2
19:10 1005 29.68 835 24.66 8.6 47.5 36 -5.5 22.1
19:15 1005 29.68 835 24.66 8.7 47.6 36 -5.6 21.9
19:20 1005 29.68 834 24.63 8.6 47.4 39 -4.8 23.4
19:25 1005 29.68 834 24.63 8.5 47.4 39 -4.7 23.5
19:30 1005 29.68 834 24.63 8.6 47.5 34 -6.3 20.6
19:35 1005 29.68 834 24.63 8.9 48.1 34 -6.2 20.8
19:40 1005 29.68 834 24.63 9 48.2 35 -5.6 22
19:45 1005 29.68 834 24.63 8.8 47.9 39 -4.4 24.1
19:50 1005 29.68 835 24.66 8.3 46.9 41 -4.3 24.2
19:55 1005 29.68 834 24.63 7.9 46.2 42 -4.4 24.1
20:00 1005 29.68 834 24.63 8 46.4 38 -5.3 22.4
20:05 1005 29.68 834 24.63 8.7 47.7 34 -6.4 20.6
20:10 1005 29.68 834 24.63 9.5 49.1 34 -5.4 22.3
20:15 1005 29.68 834 24.63 9.6 49.3 35 -5.3 22.5
20:20 1005 29.68 834 24.63 9.4 49 35 -5.2 22.6
20:25 1005 29.68 834 24.63 9.2 48.6 35 -5.4 22.2
20:30 1005 29.68 834 24.63 8.5 47.3 37 -5.3 22.5
20:35 1005 29.68 834 24.63 7.9 46.3 39 -5.3 22.4
20:40 1005 29.68 834 24.63 7.6 45.7 40 -5.2 22.7
20:45 1005 29.68 834 24.63 7.4 45.4 41 -5.1 22.9
20:50 1005 29.68 834 24.63 7.3 45.2 40 -5.2 22.6
20:55 1005 29.68 834 24.63 7.2 45 42 -4.8 23.3
21:00 1005 29.68 834 24.63 7.1 44.7 43 -4.8 23.3
21:05 1005 29.68 835 24.66 7 44.6 44 -4.5 24
21:10 1006 29.71 835 24.66 6.8 44.3 45 -4.3 24.2
21:15 1006 29.71 835 24.66 6.5 43.7 47 -4 24.7
21:20 1006 29.71 835 24.66 6.1 42.9 48 -4 24.7
21:25 1006 29.71 835 24.66 5.8 42.5 51 -3.6 25.4
21:30 1006 29.71 835 24.66 5.7 42.2 52 -3.5 25.6
21:35 1006 29.71 835 24.66 5.6 42 53 -3.3 26.1
21:40 1006 29.71 835 24.66 5.5 41.8 53 -3.3 26
21:45 1006 29.71 835 24.66 5.4 41.7 55 -3 26.6
21:50 1006 29.71 835 24.66 5.3 41.5 56 -2.8 27
21:55 1005 29.68 835 24.66 5.2 41.4 57 -2.6 27.4
22:00 1005 29.68 834 24.63 5.1 41.2 57 -2.6 27.3
22:05 1005 29.68 834 24.63 5 41 58 -2.5 27.5
22:10 1005 29.68 834 24.63 5 41 58 -2.6 27.4
22:15 1005 29.68 834 24.63 4.9 40.8 59 -2.4 27.7
22:20 1005 29.68 834 24.63 4.7 40.5 61 -2.1 28.2
22:25 1005 29.68 834 24.63 4.4 39.9 64 -1.7 28.9
22:30 1005 29.68 834 24.63 4.2 39.6 63 -2.3 27.9
22:35 1005 29.68 834 24.63 4.2 39.6 61 -2.5 27.4
22:40 1005 29.68 834 24.63 4.3 39.8 61 -2.6 27.4
22:45 1005 29.68 834 24.63 4.4 40 61 -2.4 27.7
22:50 1005 29.68 834 24.63 4.5 40 61 -2.5 27.5
22:55 1005 29.68 834 24.63 4.5 40.1 61 -2.4 27.8
23:00 1005 29.68 834 24.63 4.5 40 61 -2.5 27.5
23:05 1004 29.65 834 24.63 4.4 40 60 -2.6 27.4
23:10 1004 29.65 833 24.6 4.5 40 61 -2.3 27.8
23:15 1005 29.68 834 24.63 4.3 39.8 63 -2.1 28.1
23:20 1005 29.68 834 24.63 4.2 39.5 64 -2.1 28.3
23:25 1005 29.68 834 24.63 4 39.2 65 -1.9 28.6
23:30 1004 29.65 834 24.63 3.8 38.8 66 -1.9 28.5
23:35 1005 29.68 834 24.63 3.6 38.4 66 -2.2 28.1
23:40 1005 29.68 834 24.63 3.6 38.4 67 -2 28.5
23:45 1005 29.68 834 24.63 3.6 38.4 67 -2 28.3
23:50 1005 29.68 834 24.63 3.5 38.3 67 -2 28.5
23:55 1005 29.68 834 24.63 3.5 38.2 67 -2.1 28.3
24:00 1005 29.68 834 24.63 3.5 38.2 67 -2.1 28.3